map of SIT home
SIT - Airport
Location
City:  Sitka, Alaska, United States
Name:Sitka Rocky Gutierrez Airport
ICAO:PASI
IATA:SIT
FAA LID:SIT

Details
Type:Airport (Part 139 Class I)
Use:Public/Civil, International (customs landing rights)
Latitude:5702'49"N (57.046834)
Longitude:13521'40"W (-135.361068)
Datum:WGS 1984
Elevation:26 ft (8 m)
Variation:18.45E (WMM2015 magnetic declination)
-0.27 annual change
Runways:1
Longest:7200 × 150 ft (2195 × 45.5 m), paved

Time
Time Zone:UTC-9 (DST-8)
Local Time:

Weather
METAR:PASI 180353Z 34003KT 10SM BKN250 02/M01 A2949 RMK SLP984 T00221011 $ VIA AUTODIAL
TAF:PASI 172326Z 1800/1824 VRB03KT P6SM SCT150

Related Locations
Nearby:
Farthest:AFD: 10606 mi / 17068 km
Port Alfred, EC, ZA

Find:

   beyond  
but within

Other Information
Maps:
NOTAMs:
Links:
Sources:

  
  • flag of United States
  • flag of Alaska
  

Sectional Chart

Flight Planning
at skyvector.com

Satellite Image

Google Maps Satellite view

 

Copyright © 2004-2019 Karl L. Swartz. All rights reserved.
The Great Circle Mapper name and logo are trademarks of the Great Circle Mapper.
All other trademarks mentioned herein belong to their respective owners.
Please see credits for attibutions and further copyright information.

  Follow gcmap on Facebook Follow gcmap on Twitter Follow gcmap on Google+ GCmap on LinkedIn

hCard Microformat

Geo Microformat